sensor_id;sensor_type;location;lat;lon;timestamp;pressure;altitude;pressure_sealevel;temperature;humidity
70437;BME280;57877;39.750;-104.894;2023-11-18T00:02:07;83886.91;;;15.36;19.01
70437;BME280;57877;39.750;-104.894;2023-11-18T00:04:33;83887.79;;;15.55;18.90
70437;BME280;57877;39.750;-104.894;2023-11-18T00:06:59;83883.87;;;15.04;19.23
70437;BME280;57877;39.750;-104.894;2023-11-18T00:09:25;83886.60;;;14.74;19.57
70437;BME280;57877;39.750;-104.894;2023-11-18T00:11:51;83892.79;;;15.26;19.25
70437;BME280;57877;39.750;-104.894;2023-11-18T00:14:17;83895.85;;;15.26;19.25
70437;BME280;57877;39.750;-104.894;2023-11-18T00:16:43;83895.37;;;14.29;20.07
70437;BME280;57877;39.750;-104.894;2023-11-18T00:19:09;83897.71;;;14.15;20.16
70437;BME280;57877;39.750;-104.894;2023-11-18T00:21:35;83901.97;;;14.22;20.60
70437;BME280;57877;39.750;-104.894;2023-11-18T00:24:01;83901.37;;;14.54;20.41
70437;BME280;57877;39.750;-104.894;2023-11-18T00:26:26;83904.13;;;14.23;20.62
70437;BME280;57877;39.750;-104.894;2023-11-18T00:28:52;83904.90;;;14.15;20.71
70437;BME280;57877;39.750;-104.894;2023-11-18T00:31:18;83901.58;;;14.00;20.91
70437;BME280;57877;39.750;-104.894;2023-11-18T00:33:44;83903.61;;;13.99;21.15
70437;BME280;57877;39.750;-104.894;2023-11-18T00:36:10;83904.08;;;14.35;20.88
70437;BME280;57877;39.750;-104.894;2023-11-18T00:38:36;83905.50;;;14.39;20.72
70437;BME280;57877;39.750;-104.894;2023-11-18T00:41:02;83907.52;;;13.78;21.13
70437;BME280;57877;39.750;-104.894;2023-11-18T00:43:28;83908.68;;;13.60;21.30
70437;BME280;57877;39.750;-104.894;2023-11-18T00:45:54;83909.61;;;13.58;21.40
70437;BME280;57877;39.750;-104.894;2023-11-18T00:48:20;83911.54;;;13.85;21.17
70437;BME280;57877;39.750;-104.894;2023-11-18T00:50:46;83915.15;;;14.16;20.95
70437;BME280;57877;39.750;-104.894;2023-11-18T00:53:12;83914.30;;;13.84;21.22
70437;BME280;57877;39.750;-104.894;2023-11-18T00:55:38;83919.12;;;13.90;21.15
70437;BME280;57877;39.750;-104.894;2023-11-18T00:58:04;83920.22;;;14.06;20.94
70437;BME280;57877;39.750;-104.894;2023-11-18T01:00:30;83921.50;;;14.09;21.01
70437;BME280;57877;39.750;-104.894;2023-11-18T01:02:56;83924.71;;;14.09;21.02
70437;BME280;57877;39.750;-104.894;2023-11-18T01:05:22;83925.35;;;13.86;20.92
70437;BME280;57877;39.750;-104.894;2023-11-18T01:07:48;83927.87;;;14.00;21.07
70437;BME280;57877;39.750;-104.894;2023-11-18T01:10:14;83931.34;;;13.88;21.25
70437;BME280;57877;39.750;-104.894;2023-11-18T01:12:40;83933.17;;;13.87;21.16
70437;BME280;57877;39.750;-104.894;2023-11-18T01:15:07;83936.09;;;14.02;21.14
70437;BME280;57877;39.750;-104.894;2023-11-18T01:17:32;83935.32;;;13.89;21.19
70437;BME280;57877;39.750;-104.894;2023-11-18T01:19:58;83939.86;;;13.51;21.33
70437;BME280;57877;39.750;-104.894;2023-11-18T01:22:24;83941.14;;;13.64;21.84
70437;BME280;57877;39.750;-104.894;2023-11-18T01:24:50;83941.82;;;13.32;21.58
70437;BME280;57877;39.750;-104.894;2023-11-18T01:27:16;83940.45;;;13.44;21.63
70437;BME280;57877;39.750;-104.894;2023-11-18T01:29:42;83939.07;;;13.26;21.68
70437;BME280;57877;39.750;-104.894;2023-11-18T01:32:08;83939.10;;;13.08;21.81
70437;BME280;57877;39.750;-104.894;2023-11-18T01:34:34;83943.32;;;12.97;21.94
70437;BME280;57877;39.750;-104.894;2023-11-18T01:37:00;83944.70;;;13.02;21.93
70437;BME280;57877;39.750;-104.894;2023-11-18T01:39:26;83948.88;;;12.71;21.91
70437;BME280;57877;39.750;-104.894;2023-11-18T01:41:52;83954.25;;;12.89;21.94
70437;BME280;57877;39.750;-104.894;2023-11-18T01:44:18;83955.60;;;12.85;21.99
70437;BME280;57877;39.750;-104.894;2023-11-18T01:46:44;83954.67;;;12.66;22.21
70437;BME280;57877;39.750;-104.894;2023-11-18T01:49:10;83954.07;;;12.49;22.37
70437;BME280;57877;39.750;-104.894;2023-11-18T01:51:35;83953.25;;;12.29;22.47
70437;BME280;57877;39.750;-104.894;2023-11-18T01:54:02;83949.62;;;12.22;22.50
70437;BME280;57877;39.750;-104.894;2023-11-18T01:56:28;83949.58;;;12.23;22.48
70437;BME280;57877;39.750;-104.894;2023-11-18T01:58:54;83950.41;;;12.29;22.54
70437;BME280;57877;39.750;-104.894;2023-11-18T02:01:19;83948.23;;;12.52;22.62
70437;BME280;57877;39.750;-104.894;2023-11-18T02:03:45;83948.47;;;11.94;22.55
70437;BME280;57877;39.750;-104.894;2023-11-18T02:06:11;83949.73;;;12.35;22.64
70437;BME280;57877;39.750;-104.894;2023-11-18T02:08:37;83950.76;;;11.84;22.69
70437;BME280;57877;39.750;-104.894;2023-11-18T02:11:13;83952.54;;;12.14;22.68
70437;BME280;57877;39.750;-104.894;2023-11-18T02:13:32;83953.34;;;12.13;22.67
70437;BME280;57877;39.750;-104.894;2023-11-18T02:15:56;83949.53;;;11.78;22.73
70437;BME280;57877;39.750;-104.894;2023-11-18T02:18:22;83949.92;;;11.81;22.81
70437;BME280;57877;39.750;-104.894;2023-11-18T02:20:48;83947.52;;;11.94;22.82
70437;BME280;57877;39.750;-104.894;2023-11-18T02:23:13;83949.80;;;12.06;22.94
70437;BME280;57877;39.750;-104.894;2023-11-18T02:25:43;83949.26;;;11.88;23.08
70437;BME280;57877;39.750;-104.894;2023-11-18T02:28:05;83951.58;;;11.41;23.08
70437;BME280;57877;39.750;-104.894;2023-11-18T02:30:31;83952.76;;;11.45;22.93
70437;BME280;57877;39.750;-104.894;2023-11-18T02:33:02;83956.15;;;11.81;23.03
70437;BME280;57877;39.750;-104.894;2023-11-18T02:35:26;83952.49;;;11.65;23.10
70437;BME280;57877;39.750;-104.894;2023-11-18T02:37:51;83947.99;;;11.64;23.50
70437;BME280;57877;39.750;-104.894;2023-11-18T02:40:19;83948.48;;;11.64;23.50
70437;BME280;57877;39.750;-104.894;2023-11-18T02:42:43;83949.47;;;11.85;23.62
70437;BME280;57877;39.750;-104.894;2023-11-18T02:45:10;83948.04;;;11.53;23.85
70437;BME280;57877;39.750;-104.894;2023-11-18T02:47:33;83945.81;;;11.46;24.12
70437;BME280;57877;39.750;-104.894;2023-11-18T02:49:59;83946.60;;;11.40;24.18
70437;BME280;57877;39.750;-104.894;2023-11-18T02:52:25;83946.23;;;11.66;24.27
70437;BME280;57877;39.750;-104.894;2023-11-18T02:54:51;83946.83;;;11.32;24.31
70437;BME280;57877;39.750;-104.894;2023-11-18T02:57:17;83949.71;;;11.48;24.51
70437;BME280;57877;39.750;-104.894;2023-11-18T02:59:43;83951.51;;;11.39;24.59
70437;BME280;57877;39.750;-104.894;2023-11-18T03:02:09;83952.13;;;11.03;24.79
70437;BME280;57877;39.750;-104.894;2023-11-18T03:04:35;83955.43;;;10.92;24.80
70437;BME280;57877;39.750;-104.894;2023-11-18T03:07:01;83953.51;;;11.07;25.02
70437;BME280;57877;39.750;-104.894;2023-11-18T03:09:27;83954.72;;;10.81;25.59
70437;BME280;57877;39.750;-104.894;2023-11-18T03:11:53;83954.94;;;10.48;25.76
70437;BME280;57877;39.750;-104.894;2023-11-18T03:14:19;83958.25;;;10.44;25.78
70437;BME280;57877;39.750;-104.894;2023-11-18T03:16:45;83961.99;;;10.71;25.71
70437;BME280;57877;39.750;-104.894;2023-11-18T03:19:11;83961.24;;;10.53;25.66
70437;BME280;57877;39.750;-104.894;2023-11-18T03:21:37;83963.94;;;10.65;25.84
70437;BME280;57877;39.750;-104.894;2023-11-18T03:24:03;83964.89;;;10.61;25.81
70437;BME280;57877;39.750;-104.894;2023-11-18T03:26:29;83962.19;;;10.39;25.87
70437;BME280;57877;39.750;-104.894;2023-11-18T03:28:54;83960.48;;;10.54;26.01
70437;BME280;57877;39.750;-104.894;2023-11-18T03:31:20;83964.11;;;10.45;26.00
70437;BME280;57877;39.750;-104.894;2023-11-18T03:33:46;83963.93;;;10.29;26.23
70437;BME280;57877;39.750;-104.894;2023-11-18T03:36:12;83966.53;;;10.13;26.47
70437;BME280;57877;39.750;-104.894;2023-11-18T03:38:38;83964.08;;;10.11;26.45
70437;BME280;57877;39.750;-104.894;2023-11-18T03:41:04;83962.69;;;10.02;26.54
70437;BME280;57877;39.750;-104.894;2023-11-18T03:43:30;83961.26;;;9.95;26.55
70437;BME280;57877;39.750;-104.894;2023-11-18T03:45:56;83956.57;;;9.86;26.71
70437;BME280;57877;39.750;-104.894;2023-11-18T03:48:23;83954.47;;;9.83;26.71
70437;BME280;57877;39.750;-104.894;2023-11-18T03:50:48;83948.11;;;9.71;26.75
70437;BME280;57877;39.750;-104.894;2023-11-18T03:53:14;83942.45;;;9.97;26.88
70437;BME280;57877;39.750;-104.894;2023-11-18T03:55:40;83937.96;;;9.64;26.87
70437;BME280;57877;39.750;-104.894;2023-11-18T03:58:06;83930.05;;;9.43;27.14
70437;BME280;57877;39.750;-104.894;2023-11-18T04:00:32;83925.09;;;9.43;27.18
70437;BME280;57877;39.750;-104.894;2023-11-18T04:02:59;83922.24;;;9.62;27.23
70437;BME280;57877;39.750;-104.894;2023-11-18T04:05:24;83923.96;;;9.73;27.37
70437;BME280;57877;39.750;-104.894;2023-11-18T04:07:50;83926.11;;;9.43;27.50
70437;BME280;57877;39.750;-104.894;2023-11-18T04:10:16;83931.08;;;9.74;27.61
70437;BME280;57877;39.750;-104.894;2023-11-18T04:12:42;83941.39;;;9.34;28.07
70437;BME280;57877;39.750;-104.894;2023-11-18T04:15:09;83948.15;;;9.15;28.33
70437;BME280;57877;39.750;-104.894;2023-11-18T04:17:34;83951.91;;;8.66;29.07
70437;BME280;57877;39.750;-104.894;2023-11-18T04:20:00;83956.39;;;8.64;29.08
70437;BME280;57877;39.750;-104.894;2023-11-18T04:22:26;83953.55;;;8.32;29.48
70437;BME280;57877;39.750;-104.894;2023-11-18T04:24:52;83953.08;;;8.48;29.34
70437;BME280;57877;39.750;-104.894;2023-11-18T04:27:18;83957.97;;;8.58;29.16
70437;BME280;57877;39.750;-104.894;2023-11-18T04:29:44;83958.38;;;8.71;29.14
70437;BME280;57877;39.750;-104.894;2023-11-18T04:32:10;83960.09;;;8.72;29.38
70437;BME280;57877;39.750;-104.894;2023-11-18T04:34:36;83959.56;;;8.83;28.97
70437;BME280;57877;39.750;-104.894;2023-11-18T04:37:02;83961.66;;;8.37;29.46
70437;BME280;57877;39.750;-104.894;2023-11-18T04:39:28;83962.89;;;8.40;29.64
70437;BME280;57877;39.750;-104.894;2023-11-18T04:41:54;83960.52;;;8.10;30.08
70437;BME280;57877;39.750;-104.894;2023-11-18T04:44:20;83961.20;;;7.92;30.24
70437;BME280;57877;39.750;-104.894;2023-11-18T04:46:46;83960.97;;;8.15;29.99
70437;BME280;57877;39.750;-104.894;2023-11-18T04:49:12;83961.38;;;8.28;30.78
70437;BME280;57877;39.750;-104.894;2023-11-18T04:51:38;83962.15;;;8.26;30.25
70437;BME280;57877;39.750;-104.894;2023-11-18T04:54:04;83961.76;;;8.16;31.16
70437;BME280;57877;39.750;-104.894;2023-11-18T04:56:30;83960.11;;;8.27;31.11
70437;BME280;57877;39.750;-104.894;2023-11-18T04:58:56;83960.28;;;8.81;31.03
70437;BME280;57877;39.750;-104.894;2023-11-18T05:01:22;83958.41;;;8.51;31.82
70437;BME280;57877;39.750;-104.894;2023-11-18T05:03:48;83958.89;;;8.58;31.71
70437;BME280;57877;39.750;-104.894;2023-11-18T05:06:14;83958.18;;;8.45;32.15
70437;BME280;57877;39.750;-104.894;2023-11-18T05:08:40;83957.52;;;8.80;31.72
70437;BME280;57877;39.750;-104.894;2023-11-18T05:11:06;83955.94;;;8.50;32.16
70437;BME280;57877;39.750;-104.894;2023-11-18T05:13:32;83954.64;;;8.52;32.05
70437;BME280;57877;39.750;-104.894;2023-11-18T05:15:58;83949.79;;;8.89;31.94
70437;BME280;57877;39.750;-104.894;2023-11-18T05:18:24;83952.22;;;8.59;31.85
70437;BME280;57877;39.750;-104.894;2023-11-18T05:20:50;83949.32;;;8.63;31.58
70437;BME280;57877;39.750;-104.894;2023-11-18T05:23:16;83946.68;;;8.80;31.65
70437;BME280;57877;39.750;-104.894;2023-11-18T05:25:43;83943.86;;;8.75;31.67
70437;BME280;57877;39.750;-104.894;2023-11-18T05:28:08;83943.56;;;8.66;32.12
70437;BME280;57877;39.750;-104.894;2023-11-18T05:30:34;83942.81;;;8.21;32.35
70437;BME280;57877;39.750;-104.894;2023-11-18T05:33:02;83941.20;;;8.28;32.53
70437;BME280;57877;39.750;-104.894;2023-11-18T05:35:26;83946.01;;;8.60;32.57
70437;BME280;57877;39.750;-104.894;2023-11-18T05:37:52;83947.52;;;8.31;32.81
70437;BME280;57877;39.750;-104.894;2023-11-18T05:40:18;83944.46;;;8.57;32.44
70437;BME280;57877;39.750;-104.894;2023-11-18T05:42:44;83940.69;;;8.31;32.43
70437;BME280;57877;39.750;-104.894;2023-11-18T05:45:10;83937.61;;;8.52;32.51
70437;BME280;57877;39.750;-104.894;2023-11-18T05:47:36;83937.38;;;8.24;32.47
70437;BME280;57877;39.750;-104.894;2023-11-18T05:50:02;83939.27;;;8.19;32.61
70437;BME280;57877;39.750;-104.894;2023-11-18T05:52:28;83938.65;;;8.59;32.73
70437;BME280;57877;39.750;-104.894;2023-11-18T05:54:54;83937.87;;;8.34;32.77
70437;BME280;57877;39.750;-104.894;2023-11-18T05:57:20;83937.54;;;7.93;32.92
70437;BME280;57877;39.750;-104.894;2023-11-18T05:59:46;83937.10;;;8.14;33.08
70437;BME280;57877;39.750;-104.894;2023-11-18T06:02:12;83934.96;;;7.85;33.17
70437;BME280;57877;39.750;-104.894;2023-11-18T06:04:38;83937.00;;;7.85;33.20
70437;BME280;57877;39.750;-104.894;2023-11-18T06:07:04;83932.65;;;7.66;33.35
70437;BME280;57877;39.750;-104.894;2023-11-18T06:09:30;83932.67;;;7.95;33.24
70437;BME280;57877;39.750;-104.894;2023-11-18T06:11:56;83929.65;;;7.95;33.08
70437;BME280;57877;39.750;-104.894;2023-11-18T06:14:22;83925.63;;;8.03;33.30
70437;BME280;57877;39.750;-104.894;2023-11-18T06:16:48;83923.71;;;7.38;33.68
70437;BME280;57877;39.750;-104.894;2023-11-18T06:19:13;83923.00;;;7.76;33.16
70437;BME280;57877;39.750;-104.894;2023-11-18T06:21:40;83922.77;;;7.95;33.23
70437;BME280;57877;39.750;-104.894;2023-11-18T06:24:06;83921.36;;;7.43;33.48
70437;BME280;57877;39.750;-104.894;2023-11-18T06:26:32;83919.72;;;6.90;33.87
70437;BME280;57877;39.750;-104.894;2023-11-18T06:28:58;83918.63;;;7.38;33.55
70437;BME280;57877;39.750;-104.894;2023-11-18T06:31:24;83918.05;;;7.68;33.08
70437;BME280;57877;39.750;-104.894;2023-11-18T06:33:50;83915.46;;;7.48;33.40
70437;BME280;57877;39.750;-104.894;2023-11-18T06:36:18;83913.92;;;7.52;33.38
70437;BME280;57877;39.750;-104.894;2023-11-18T06:38:42;83909.63;;;7.26;33.59
70437;BME280;57877;39.750;-104.894;2023-11-18T06:41:08;83912.63;;;7.42;33.21
70437;BME280;57877;39.750;-104.894;2023-11-18T06:43:35;83912.46;;;7.90;33.25
70437;BME280;57877;39.750;-104.894;2023-11-18T06:46:00;83913.80;;;7.38;33.17
70437;BME280;57877;39.750;-104.894;2023-11-18T06:48:26;83913.91;;;7.19;33.47
70437;BME280;57877;39.750;-104.894;2023-11-18T06:50:52;83915.00;;;7.42;33.38
70437;BME280;57877;39.750;-104.894;2023-11-18T06:53:18;83915.93;;;7.42;33.13
70437;BME280;57877;39.750;-104.894;2023-11-18T06:55:44;83916.55;;;7.47;33.06
70437;BME280;57877;39.750;-104.894;2023-11-18T06:58:10;83913.07;;;7.79;32.85
70437;BME280;57877;39.750;-104.894;2023-11-18T07:00:37;83909.44;;;7.94;32.96
70437;BME280;57877;39.750;-104.894;2023-11-18T07:03:02;83908.03;;;7.80;32.73
70437;BME280;57877;39.750;-104.894;2023-11-18T07:05:28;83909.30;;;7.63;32.64
70437;BME280;57877;39.750;-104.894;2023-11-18T07:07:54;83905.61;;;7.74;32.72
70437;BME280;57877;39.750;-104.894;2023-11-18T07:10:20;83903.44;;;7.14;33.03
70437;BME280;57877;39.750;-104.894;2023-11-18T07:12:46;83898.68;;;7.65;33.15
70437;BME280;57877;39.750;-104.894;2023-11-18T07:15:12;83900.09;;;7.19;33.90
70437;BME280;57877;39.750;-104.894;2023-11-18T07:17:38;83901.46;;;6.86;33.66
70437;BME280;57877;39.750;-104.894;2023-11-18T07:20:04;83898.77;;;7.14;33.72
70437;BME280;57877;39.750;-104.894;2023-11-18T07:22:30;83899.11;;;7.46;33.64
70437;BME280;57877;39.750;-104.894;2023-11-18T07:24:56;83897.05;;;6.92;34.44
70437;BME280;57877;39.750;-104.894;2023-11-18T07:27:22;83894.08;;;7.05;33.92
70437;BME280;57877;39.750;-104.894;2023-11-18T07:29:48;83894.17;;;6.86;34.10
70437;BME280;57877;39.750;-104.894;2023-11-18T07:32:13;83894.55;;;7.21;33.75
70437;BME280;57877;39.750;-104.894;2023-11-18T07:34:38;83889.03;;;6.86;33.97
70437;BME280;57877;39.750;-104.894;2023-11-18T07:37:04;83886.65;;;6.87;34.18
70437;BME280;57877;39.750;-104.894;2023-11-18T07:39:30;83884.45;;;6.78;34.14
70437;BME280;57877;39.750;-104.894;2023-11-18T07:41:56;83884.60;;;6.83;34.03
70437;BME280;57877;39.750;-104.894;2023-11-18T07:44:22;83880.36;;;6.80;34.10
70437;BME280;57877;39.750;-104.894;2023-11-18T07:46:48;83875.37;;;6.74;34.18
70437;BME280;57877;39.750;-104.894;2023-11-18T07:49:14;83874.37;;;6.70;34.06
70437;BME280;57877;39.750;-104.894;2023-11-18T07:51:40;83870.05;;;6.52;34.35
70437;BME280;57877;39.750;-104.894;2023-11-18T07:54:06;83865.92;;;6.43;34.58
70437;BME280;57877;39.750;-104.894;2023-11-18T07:56:32;83863.00;;;6.42;34.56
70437;BME280;57877;39.750;-104.894;2023-11-18T07:58:58;83863.20;;;6.38;34.61
70437;BME280;57877;39.750;-104.894;2023-11-18T08:01:24;83861.24;;;6.25;34.69
70437;BME280;57877;39.750;-104.894;2023-11-18T08:03:50;83863.53;;;6.77;34.51
70437;BME280;57877;39.750;-104.894;2023-11-18T08:06:16;83866.57;;;6.14;34.84
70437;BME280;57877;39.750;-104.894;2023-11-18T08:08:42;83862.04;;;6.40;34.65
70437;BME280;57877;39.750;-104.894;2023-11-18T08:11:11;83860.10;;;6.19;34.37
70437;BME280;57877;39.750;-104.894;2023-11-18T08:13:34;83857.92;;;6.61;34.42
70437;BME280;57877;39.750;-104.894;2023-11-18T08:16:00;83864.50;;;6.48;34.60
70437;BME280;57877;39.750;-104.894;2023-11-18T08:18:26;83861.62;;;6.33;34.60
70437;BME280;57877;39.750;-104.894;2023-11-18T08:20:52;83859.09;;;5.92;34.75
70437;BME280;57877;39.750;-104.894;2023-11-18T08:23:18;83858.78;;;5.95;34.87
70437;BME280;57877;39.750;-104.894;2023-11-18T08:25:44;83858.12;;;5.55;34.65
70437;BME280;57877;39.750;-104.894;2023-11-18T08:28:10;83857.87;;;5.66;34.79
70437;BME280;57877;39.750;-104.894;2023-11-18T08:30:38;83857.73;;;5.99;34.31
70437;BME280;57877;39.750;-104.894;2023-11-18T08:33:02;83859.22;;;6.10;34.16
70437;BME280;57877;39.750;-104.894;2023-11-18T08:35:28;83858.30;;;6.22;34.02
70437;BME280;57877;39.750;-104.894;2023-11-18T08:37:54;83859.25;;;6.10;34.10
70437;BME280;57877;39.750;-104.894;2023-11-18T08:40:20;83858.62;;;5.63;34.47
70437;BME280;57877;39.750;-104.894;2023-11-18T08:42:47;83857.77;;;5.73;34.35
70437;BME280;57877;39.750;-104.894;2023-11-18T08:45:11;83857.04;;;5.87;34.07
70437;BME280;57877;39.750;-104.894;2023-11-18T08:47:38;83857.65;;;5.94;33.99
70437;BME280;57877;39.750;-104.894;2023-11-18T08:50:04;83859.69;;;5.77;33.98
70437;BME280;57877;39.750;-104.894;2023-11-18T08:52:30;83859.22;;;5.73;34.13
70437;BME280;57877;39.750;-104.894;2023-11-18T08:54:55;83855.75;;;5.60;34.25
70437;BME280;57877;39.750;-104.894;2023-11-18T08:57:21;83857.84;;;5.52;33.93
70437;BME280;57877;39.750;-104.894;2023-11-18T08:59:47;83859.38;;;4.85;35.12
70437;BME280;57877;39.750;-104.894;2023-11-18T09:02:13;83853.40;;;5.63;34.11
70437;BME280;57877;39.750;-104.894;2023-11-18T09:04:40;83855.58;;;5.61;33.81
70437;BME280;57877;39.750;-104.894;2023-11-18T09:07:06;83854.90;;;5.82;33.40
70437;BME280;57877;39.750;-104.894;2023-11-18T09:11:58;83859.55;;;5.79;33.37
70437;BME280;57877;39.750;-104.894;2023-11-18T09:14:24;83858.21;;;5.92;33.40
70437;BME280;57877;39.750;-104.894;2023-11-18T09:16:50;83855.59;;;5.73;33.53
70437;BME280;57877;39.750;-104.894;2023-11-18T09:19:16;83860.39;;;5.77;33.45
70437;BME280;57877;39.750;-104.894;2023-11-18T09:21:43;83858.63;;;5.48;33.44
70437;BME280;57877;39.750;-104.894;2023-11-18T09:24:08;83856.78;;;5.70;33.40
70437;BME280;57877;39.750;-104.894;2023-11-18T09:26:33;83855.28;;;5.75;33.32
70437;BME280;57877;39.750;-104.894;2023-11-18T09:28:59;83852.39;;;5.68;33.31
70437;BME280;57877;39.750;-104.894;2023-11-18T09:31:24;83854.68;;;5.52;33.43
70437;BME280;57877;39.750;-104.894;2023-11-18T09:33:51;83855.54;;;5.58;33.35
70437;BME280;57877;39.750;-104.894;2023-11-18T09:36:17;83857.71;;;5.62;33.24
70437;BME280;57877;39.750;-104.894;2023-11-18T09:38:43;83858.27;;;5.62;33.15
70437;BME280;57877;39.750;-104.894;2023-11-18T09:41:10;83855.16;;;5.56;33.14
70437;BME280;57877;39.750;-104.894;2023-11-18T09:43:35;83853.22;;;5.41;33.34
70437;BME280;57877;39.750;-104.894;2023-11-18T09:46:05;83851.39;;;5.60;33.47
70437;BME280;57877;39.750;-104.894;2023-11-18T09:48:27;83854.68;;;5.33;33.42
70437;BME280;57877;39.750;-104.894;2023-11-18T09:50:53;83854.97;;;5.66;33.51
70437;BME280;57877;39.750;-104.894;2023-11-18T09:53:19;83856.27;;;5.19;33.51
70437;BME280;57877;39.750;-104.894;2023-11-18T09:55:50;83857.13;;;5.23;33.50
70437;BME280;57877;39.750;-104.894;2023-11-18T09:58:15;83856.49;;;5.24;33.48
70437;BME280;57877;39.750;-104.894;2023-11-18T10:00:37;83855.09;;;4.99;33.63
70437;BME280;57877;39.750;-104.894;2023-11-18T10:03:02;83853.09;;;5.43;33.65
70437;BME280;57877;39.750;-104.894;2023-11-18T10:05:29;83850.14;;;4.12;34.84
70437;BME280;57877;39.750;-104.894;2023-11-18T10:07:54;83846.51;;;5.21;34.13
70437;BME280;57877;39.750;-104.894;2023-11-18T10:10:20;83840.56;;;4.78;34.03
70437;BME280;57877;39.750;-104.894;2023-11-18T10:12:47;83838.88;;;5.08;33.93
70437;BME280;57877;39.750;-104.894;2023-11-18T10:15:14;83837.93;;;5.32;33.90
70437;BME280;57877;39.750;-104.894;2023-11-18T10:17:39;83837.62;;;5.05;34.24
70437;BME280;57877;39.750;-104.894;2023-11-18T10:20:05;83837.72;;;4.79;34.28
70437;BME280;57877;39.750;-104.894;2023-11-18T10:22:30;83837.86;;;4.25;34.47
70437;BME280;57877;39.750;-104.894;2023-11-18T10:24:55;83838.48;;;4.92;34.31
70437;BME280;57877;39.750;-104.894;2023-11-18T10:27:20;83834.34;;;5.03;34.05
70437;BME280;57877;39.750;-104.894;2023-11-18T10:29:46;83835.86;;;4.61;34.36
70437;BME280;57877;39.750;-104.894;2023-11-18T10:32:12;83841.95;;;4.93;34.02
70437;BME280;57877;39.750;-104.894;2023-11-18T10:34:38;83842.72;;;4.83;34.17
70437;BME280;57877;39.750;-104.894;2023-11-18T10:37:04;83837.21;;;5.05;33.85
70437;BME280;57877;39.750;-104.894;2023-11-18T10:39:31;83837.05;;;5.11;33.75
70437;BME280;57877;39.750;-104.894;2023-11-18T10:41:59;83839.09;;;4.74;33.88
70437;BME280;57877;39.750;-104.894;2023-11-18T10:44:20;83833.19;;;4.77;33.74
70437;BME280;57877;39.750;-104.894;2023-11-18T10:46:50;83830.87;;;4.96;33.81
70437;BME280;57877;39.750;-104.894;2023-11-18T10:49:10;83831.49;;;4.61;33.68
70437;BME280;57877;39.750;-104.894;2023-11-18T10:51:35;83831.77;;;4.57;33.73
70437;BME280;57877;39.750;-104.894;2023-11-18T10:54:01;83835.09;;;4.47;34.11
70437;BME280;57877;39.750;-104.894;2023-11-18T10:56:27;83831.71;;;4.37;34.12
70437;BME280;57877;39.750;-104.894;2023-11-18T10:58:53;83834.68;;;4.33;34.35
70437;BME280;57877;39.750;-104.894;2023-11-18T11:01:27;83829.83;;;4.37;34.36
70437;BME280;57877;39.750;-104.894;2023-11-18T11:03:52;83828.99;;;4.40;34.32
70437;BME280;57877;39.750;-104.894;2023-11-18T11:06:16;83826.10;;;4.26;34.28
70437;BME280;57877;39.750;-104.894;2023-11-18T11:08:37;83826.82;;;4.29;34.37
70437;BME280;57877;39.750;-104.894;2023-11-18T11:11:04;83825.19;;;4.37;34.27
70437;BME280;57877;39.750;-104.894;2023-11-18T11:13:30;83822.22;;;4.15;34.52
70437;BME280;57877;39.750;-104.894;2023-11-18T11:15:55;83822.76;;;3.97;34.73
70437;BME280;57877;39.750;-104.894;2023-11-18T11:18:21;83824.78;;;4.30;34.28
70437;BME280;57877;39.750;-104.894;2023-11-18T11:20:56;83826.90;;;4.30;34.15
70437;BME280;57877;39.750;-104.894;2023-11-18T11:23:18;83825.38;;;4.13;34.21
70437;BME280;57877;39.750;-104.894;2023-11-18T11:25:42;83823.03;;;4.35;34.11
70437;BME280;57877;39.750;-104.894;2023-11-18T11:28:09;83824.77;;;4.07;34.36
70437;BME280;57877;39.750;-104.894;2023-11-18T11:30:29;83829.86;;;4.27;34.17
70437;BME280;57877;39.750;-104.894;2023-11-18T11:32:58;83824.93;;;4.19;34.22
70437;BME280;57877;39.750;-104.894;2023-11-18T11:35:23;83822.39;;;3.95;34.80
70437;BME280;57877;39.750;-104.894;2023-11-18T11:37:46;83824.22;;;4.04;34.73
70437;BME280;57877;39.750;-104.894;2023-11-18T11:40:12;83823.29;;;4.11;34.63
70437;BME280;57877;39.750;-104.894;2023-11-18T11:42:36;83822.16;;;3.73;34.94
70437;BME280;57877;39.750;-104.894;2023-11-18T11:45:02;83823.96;;;3.70;35.01
70437;BME280;57877;39.750;-104.894;2023-11-18T11:47:28;83823.77;;;4.25;34.36
70437;BME280;57877;39.750;-104.894;2023-11-18T11:49:58;83818.35;;;3.73;34.64
70437;BME280;57877;39.750;-104.894;2023-11-18T11:52:23;83819.61;;;3.84;34.79
70437;BME280;57877;39.750;-104.894;2023-11-18T11:54:52;83817.69;;;3.86;35.23
70437;BME280;57877;39.750;-104.894;2023-11-18T11:57:11;83818.29;;;3.92;34.70
70437;BME280;57877;39.750;-104.894;2023-11-18T12:02:02;83813.93;;;3.85;34.73
70437;BME280;57877;39.750;-104.894;2023-11-18T12:04:27;83811.91;;;4.06;34.76
70437;BME280;57877;39.750;-104.894;2023-11-18T12:06:53;83814.95;;;4.09;34.72
70437;BME280;57877;39.750;-104.894;2023-11-18T12:09:19;83812.94;;;3.92;34.59
70437;BME280;57877;39.750;-104.894;2023-11-18T12:11:45;83809.04;;;3.40;35.60
70437;BME280;57877;39.750;-104.894;2023-11-18T12:14:12;83810.50;;;3.67;35.22
70437;BME280;57877;39.750;-104.894;2023-11-18T12:28:47;83816.83;;;2.70;36.32
70437;BME280;57877;39.750;-104.894;2023-11-18T12:31:12;83816.51;;;3.02;35.79
70437;BME280;57877;39.750;-104.894;2023-11-18T12:36:22;83812.41;;;3.17;36.18
70437;BME280;57877;39.750;-104.894;2023-11-18T12:40:57;83808.24;;;3.39;34.93
70437;BME280;57877;39.750;-104.894;2023-11-18T12:48:15;83808.54;;;2.61;36.03
70437;BME280;57877;39.750;-104.894;2023-11-18T12:50:41;83808.95;;;2.79;35.87
70437;BME280;57877;39.750;-104.894;2023-11-18T12:53:04;83808.36;;;2.75;35.55
70437;BME280;57877;39.750;-104.894;2023-11-18T12:55:29;83806.25;;;3.21;34.87
70437;BME280;57877;39.750;-104.894;2023-11-18T12:57:54;83804.64;;;3.40;34.54